createdAt,value
2024-03-05T00:01:10.372Z,94277.66
2024-03-05T00:03:37.013Z,94272.91
2024-03-05T00:06:03.746Z,94267.09
2024-03-05T00:08:30.319Z,94268.16
2024-03-05T00:10:57.122Z,94265.53
2024-03-05T00:13:25.872Z,94269.22
2024-03-05T00:15:53.423Z,94270.81
2024-03-05T00:18:22.136Z,94281.75
2024-03-05T00:20:48.823Z,94270.19
2024-03-05T00:23:15.453Z,94282.81
2024-03-05T00:25:42.150Z,94286.06
2024-03-05T00:28:08.865Z,94282.94
2024-03-05T00:30:35.466Z,94277.66
2024-03-05T00:33:02.153Z,94282.69
2024-03-05T00:35:29.402Z,94287.78
2024-03-05T00:37:56.039Z,94283.44
2024-03-05T00:40:22.712Z,94290.06
2024-03-05T00:42:49.370Z,94279.00
2024-03-05T00:45:18.593Z,94288.75
2024-03-05T00:47:45.301Z,94287.66
2024-03-05T00:50:14.537Z,94286.59
2024-03-05T00:52:41.432Z,94284.00
2024-03-05T00:55:08.832Z,94288.22
2024-03-05T00:57:36.194Z,94289.53
2024-03-05T01:00:02.803Z,94289.28
2024-03-05T01:02:29.584Z,94295.88
2024-03-05T01:04:56.321Z,94289.81
2024-03-05T01:07:23.327Z,94298.22
2024-03-05T01:09:50.538Z,94299.31
2024-03-05T01:12:17.728Z,94296.66
2024-03-05T01:14:45.895Z,94287.97
2024-03-05T01:17:13.928Z,94299.56
2024-03-05T01:19:40.789Z,94296.13
2024-03-05T01:22:07.439Z,94292.72
2024-03-05T01:24:34.020Z,94294.28
2024-03-05T01:27:00.694Z,94296.72
2024-03-05T01:29:27.353Z,94288.47
2024-03-05T01:31:58.119Z,94294.53
2024-03-05T01:34:25.065Z,94288.22
2024-03-05T01:36:51.950Z,94287.69
2024-03-05T01:39:22.568Z,94282.41
2024-03-05T01:41:49.187Z,94285.31
2024-03-05T01:44:16.461Z,94279.00
2024-03-05T01:46:43.410Z,94281.88
2024-03-05T01:49:10.577Z,94281.34
2024-03-05T01:51:38.839Z,94273.97
2024-03-05T01:54:07.274Z,94282.94
2024-03-05T01:56:34.051Z,94286.91
2024-03-05T01:59:01.332Z,94285.06
2024-03-05T02:01:28.313Z,94281.81
2024-03-05T02:03:55.232Z,94289.28
2024-03-05T02:06:22.945Z,94279.47
2024-03-05T02:08:49.751Z,94284.47
2024-03-05T02:11:17.353Z,94283.97
2024-03-05T02:13:44.421Z,94288.22
2024-03-05T02:16:11.182Z,94279.50
2024-03-05T02:18:37.811Z,94291.66
2024-03-05T02:21:04.609Z,94285.81
2024-03-05T02:23:31.283Z,94288.91
2024-03-05T02:25:58.240Z,94290.38
2024-03-05T02:28:24.981Z,94290.41
2024-03-05T02:30:52.000Z,94289.63
2024-03-05T02:33:20.224Z,94284.00
2024-03-05T02:35:47.683Z,94282.53
2024-03-05T02:38:14.873Z,94287.66
2024-03-05T02:40:41.572Z,94293.50
2024-03-05T02:43:08.272Z,94297.19
2024-03-05T02:45:35.021Z,94293.75
2024-03-05T02:48:05.068Z,94294.81
2024-03-05T02:50:31.906Z,94297.38
2024-03-05T02:52:58.794Z,94297.13
2024-03-05T02:55:25.532Z,94297.03
2024-03-05T02:57:52.287Z,94299.88
2024-03-05T03:00:21.951Z,94304.88
2024-03-05T03:02:52.225Z,94303.50
2024-03-05T03:05:22.420Z,94306.16
2024-03-05T03:07:49.318Z,94311.09
2024-03-05T03:10:16.280Z,94307.66
2024-03-05T03:12:43.472Z,94307.19
2024-03-05T03:15:10.220Z,94314.81
2024-03-05T03:17:39.487Z,94317.16
2024-03-05T03:20:08.952Z,94317.78
2024-03-05T03:22:36.161Z,94328.03
2024-03-05T03:25:02.884Z,94323.97
2024-03-05T03:27:29.729Z,94327.59
2024-03-05T03:29:56.391Z,94328.13
2024-03-05T03:32:23.008Z,94334.84
2024-03-05T03:34:49.709Z,94331.97
2024-03-05T03:37:16.444Z,94330.41
2024-03-05T03:39:43.751Z,94328.53
2024-03-05T03:42:13.301Z,94334.63
2024-03-05T03:44:40.512Z,94336.66
2024-03-05T03:47:08.558Z,94334.00
2024-03-05T03:49:35.237Z,94338.06
2024-03-05T03:52:01.893Z,94342.47
2024-03-05T03:54:28.520Z,94338.06
2024-03-05T03:56:55.607Z,94333.88
2024-03-05T03:59:22.288Z,94338.97
2024-03-05T04:01:49.766Z,94343.00
2024-03-05T04:04:16.916Z,94341.47
2024-03-05T04:06:43.894Z,94342.22
2024-03-05T04:09:10.638Z,94350.47
2024-03-05T04:11:40.236Z,94350.06
2024-03-05T04:14:06.978Z,94343.63
2024-03-05T04:16:33.775Z,94356.66
2024-03-05T04:19:00.422Z,94359.53
2024-03-05T04:21:27.375Z,94360.25
2024-03-05T04:23:54.016Z,94365.72
2024-03-05T04:26:28.105Z,94367.94
2024-03-05T04:28:56.254Z,94370.19
2024-03-05T04:31:37.537Z,94370.94
2024-03-05T04:34:08.722Z,94370.41
2024-03-05T04:36:38.948Z,94364.44
2024-03-05T04:39:07.621Z,94363.66
2024-03-05T04:41:34.357Z,94367.78
2024-03-05T04:44:01.228Z,94368.16
2024-03-05T04:46:28.005Z,94370.47
2024-03-05T04:48:55.539Z,94367.16
2024-03-05T04:51:22.241Z,94380.75
2024-03-05T04:53:49.136Z,94376.75
2024-03-05T04:56:15.759Z,94374.41
2024-03-05T04:58:42.479Z,94370.59
2024-03-05T05:01:09.530Z,94371.75
2024-03-05T05:03:36.197Z,94365.22
2024-03-05T05:06:02.891Z,94360.50
2024-03-05T05:08:29.554Z,94366.66
2024-03-05T05:10:56.700Z,94364.22
2024-03-05T05:13:23.492Z,94371.44
2024-03-05T05:15:50.302Z,94371.50
2024-03-05T05:18:17.062Z,94362.34
2024-03-05T05:20:44.357Z,94370.94
2024-03-05T05:23:11.049Z,94365.47
2024-03-05T05:25:38.650Z,94376.03
2024-03-05T05:28:06.611Z,94360.50
2024-03-05T05:30:33.896Z,94373.88
2024-03-05T05:33:00.667Z,94366.22
2024-03-05T05:35:27.388Z,94365.53
2024-03-05T05:37:54.145Z,94369.88
2024-03-05T05:40:21.962Z,94366.50
2024-03-05T05:42:49.722Z,94373.00
2024-03-05T05:45:16.358Z,94371.47
2024-03-05T05:47:50.379Z,94383.53
2024-03-05T05:50:20.359Z,94385.13
2024-03-05T05:52:48.492Z,94386.00
2024-03-05T05:55:16.693Z,94388.22
2024-03-05T05:57:47.546Z,94391.56
2024-03-05T06:00:24.337Z,94386.28
2024-03-05T06:02:54.536Z,94393.09
2024-03-05T06:05:24.120Z,94403.72
2024-03-05T06:07:51.318Z,94400.84
2024-03-05T06:10:18.567Z,94400.38
2024-03-05T06:12:46.527Z,94406.69
2024-03-05T06:15:13.432Z,94403.91
2024-03-05T06:17:40.960Z,94397.97
2024-03-05T06:20:12.972Z,94403.19
2024-03-05T06:22:40.708Z,94405.91
2024-03-05T06:25:09.307Z,94403.28
2024-03-05T06:27:39.448Z,94414.34
2024-03-05T06:30:09.658Z,94420.06
2024-03-05T06:32:42.613Z,94415.59
2024-03-05T06:35:12.200Z,94418.53
2024-03-05T06:37:48.248Z,94415.69
2024-03-05T06:40:17.626Z,94424.28
2024-03-05T06:42:53.185Z,94420.16
2024-03-05T06:45:26.286Z,94426.41
2024-03-05T06:48:11.582Z,94435.13
2024-03-05T06:50:43.907Z,94439.88
2024-03-05T06:53:30.515Z,94440.22
2024-03-05T06:56:16.252Z,94436.19
2024-03-05T06:58:43.985Z,94436.44
2024-03-05T07:01:10.782Z,94447.91
2024-03-05T07:03:38.558Z,94446.50
2024-03-05T07:06:08.382Z,94453.94
2024-03-05T07:08:41.420Z,94446.66
2024-03-05T07:11:12.071Z,94457.06
2024-03-05T07:13:44.766Z,94449.78
2024-03-05T07:16:18.540Z,94460.31
2024-03-05T07:18:48.694Z,94457.91
2024-03-05T07:21:16.088Z,94457.38
2024-03-05T07:23:42.700Z,94459.69
2024-03-05T07:26:09.518Z,94465.13
2024-03-05T07:28:38.661Z,94465.41
2024-03-05T07:31:05.300Z,94463.00
2024-03-05T07:33:32.489Z,94468.00
2024-03-05T07:35:59.157Z,94470.75
2024-03-05T07:38:25.890Z,94467.19
2024-03-05T07:40:52.708Z,94469.78
2024-03-05T07:43:19.649Z,94468.00
2024-03-05T07:45:48.817Z,94474.84
2024-03-05T07:48:17.233Z,94479.59
2024-03-05T07:50:44.667Z,94474.56
2024-03-05T07:53:11.462Z,94471.03
2024-03-05T07:55:46.375Z,94476.81
2024-03-05T07:58:14.489Z,94483.78
2024-03-05T08:00:41.949Z,94484.59
2024-03-05T08:03:08.781Z,94487.84
2024-03-05T08:05:36.239Z,94480.78
2024-03-05T08:08:03.730Z,94493.31
2024-03-05T08:10:30.677Z,94481.38
2024-03-05T08:12:57.390Z,94484.59
2024-03-05T08:15:27.656Z,94485.50
2024-03-05T08:17:55.204Z,94487.06
2024-03-05T08:20:26.666Z,94492.47
2024-03-05T08:22:54.262Z,94488.25
2024-03-05T08:25:21.301Z,94490.31
2024-03-05T08:27:48.698Z,94491.13
2024-03-05T08:30:20.993Z,94493.06
2024-03-05T08:32:51.073Z,94495.47
2024-03-05T08:35:17.818Z,94493.22
2024-03-05T08:37:46.778Z,94498.00
2024-03-05T08:40:16.104Z,94495.28
2024-03-05T08:42:43.703Z,94501.28
2024-03-05T08:45:11.285Z,94501.31
2024-03-05T08:47:38.277Z,94505.47
2024-03-05T08:50:05.756Z,94495.25
2024-03-05T08:52:32.584Z,94501.81
2024-03-05T08:54:59.394Z,94501.53
2024-03-05T08:57:27.353Z,94493.66
2024-03-05T08:59:54.345Z,94493.56
2024-03-05T09:02:21.137Z,94497.88
2024-03-05T09:04:49.035Z,94495.22
2024-03-05T09:07:16.095Z,94496.38
2024-03-05T09:09:43.221Z,94498.34
2024-03-05T09:12:10.130Z,94510.69
2024-03-05T09:14:37.101Z,94505.75
2024-03-05T09:17:04.284Z,94497.34
2024-03-05T09:19:30.997Z,94507.09
2024-03-05T09:21:57.661Z,94506.59
2024-03-05T09:24:24.453Z,94503.16
2024-03-05T09:26:51.353Z,94510.81
2024-03-05T09:29:18.081Z,94504.47
2024-03-05T09:31:44.836Z,94511.84
2024-03-05T09:34:11.606Z,94507.66
2024-03-05T09:36:39.398Z,94510.03
2024-03-05T09:39:10.717Z,94513.44
2024-03-05T09:41:41.494Z,94508.19
2024-03-05T09:44:09.401Z,94505.16
2024-03-05T09:46:40.628Z,94505.56
2024-03-05T09:49:17.941Z,94507.94
2024-03-05T09:51:49.546Z,94511.84
2024-03-05T09:54:16.260Z,94514.81
2024-03-05T09:56:43.742Z,94508.44
2024-03-05T09:59:12.060Z,94511.84
2024-03-05T10:01:38.912Z,94508.69
2024-03-05T10:04:06.361Z,94506.69
2024-03-05T10:06:33.209Z,94501.91
2024-03-05T10:08:59.866Z,94515.84
2024-03-05T10:11:26.713Z,94508.63
2024-03-05T10:13:53.484Z,94500.28
2024-03-05T10:16:21.471Z,94496.16
2024-03-05T10:18:48.398Z,94499.72
2024-03-05T10:21:19.182Z,94485.38
2024-03-05T10:23:47.623Z,94492.53
2024-03-05T10:26:18.740Z,94496.69
2024-03-05T10:28:46.855Z,94492.88
2024-03-05T10:31:23.349Z,94498.16
2024-03-05T10:33:51.886Z,94495.19
2024-03-05T10:36:29.839Z,94496.03
2024-03-05T10:38:56.689Z,94501.81
2024-03-05T10:41:39.251Z,94499.19
2024-03-05T10:44:14.716Z,94498.75
2024-03-05T10:46:44.341Z,94496.75
2024-03-05T10:49:12.547Z,94489.06
2024-03-05T10:51:40.047Z,94493.47
2024-03-05T10:54:07.095Z,94493.19
2024-03-05T10:56:39.982Z,94488.75
2024-03-05T10:59:17.254Z,94491.84
2024-03-05T11:01:46.091Z,94495.91
2024-03-05T11:04:14.596Z,94493.75
2024-03-05T11:06:41.799Z,94496.03
2024-03-05T11:09:11.779Z,94492.78
2024-03-05T11:11:40.883Z,94497.72
2024-03-05T11:14:08.324Z,94494.91
2024-03-05T11:16:37.741Z,94496.19
2024-03-05T11:19:11.340Z,94502.28
2024-03-05T11:21:39.902Z,94493.19
2024-03-05T11:24:07.624Z,94486.66
2024-03-05T11:26:34.897Z,94487.13
2024-03-05T11:29:03.859Z,94485.84
2024-03-05T11:31:30.628Z,94481.59
2024-03-05T11:34:03.566Z,94477.22
2024-03-05T11:36:37.726Z,94478.50
2024-03-05T11:39:08.615Z,94482.28
2024-03-05T11:41:38.972Z,94475.75
2024-03-05T11:44:05.947Z,94480.44
2024-03-05T11:46:49.856Z,94479.59
2024-03-05T11:49:17.766Z,94485.72
2024-03-05T11:51:45.732Z,94470.66
2024-03-05T11:54:16.278Z,94474.09
2024-03-05T11:56:44.480Z,94476.38
2024-03-05T11:59:11.736Z,94475.56
2024-03-05T12:01:40.093Z,94480.53
2024-03-05T12:04:08.937Z,94485.34
2024-03-05T12:06:36.019Z,94470.28
2024-03-05T12:09:21.738Z,94476.06
2024-03-05T12:12:04.633Z,94477.69
2024-03-05T12:14:36.039Z,94478.69
2024-03-05T12:17:13.734Z,94477.63
2024-03-05T12:19:41.521Z,94473.06
2024-03-05T12:22:08.372Z,94468.63
2024-03-05T12:24:36.131Z,94468.25
2024-03-05T12:27:03.757Z,94464.97
2024-03-05T12:29:33.362Z,94473.50
2024-03-05T12:32:04.849Z,94468.25
2024-03-05T12:34:31.932Z,94470.81
2024-03-05T12:36:58.652Z,94471.06
2024-03-05T12:39:25.881Z,94473.44
2024-03-05T12:42:18.567Z,94471.13
2024-03-05T12:44:45.298Z,94460.53
2024-03-05T12:47:15.120Z,94467.50
2024-03-05T12:49:51.304Z,94463.31
2024-03-05T12:52:22.640Z,94463.50
2024-03-05T12:55:11.115Z,94460.72
2024-03-05T12:57:38.041Z,94462.63
2024-03-05T13:00:11.316Z,94462.66
2024-03-05T13:02:39.270Z,94465.09
2024-03-05T13:05:06.502Z,94463.13
2024-03-05T13:07:34.776Z,94453.84
2024-03-05T13:10:01.644Z,94459.47
2024-03-05T13:12:30.374Z,94456.09
2024-03-05T13:14:56.976Z,94462.78
2024-03-05T13:17:23.705Z,94463.34
2024-03-05T13:19:50.406Z,94463.47
2024-03-05T13:22:17.033Z,94461.91
2024-03-05T13:24:44.437Z,94461.94
2024-03-05T13:27:11.500Z,94453.13
2024-03-05T13:29:38.777Z,94459.91
2024-03-05T13:32:06.007Z,94455.63
2024-03-05T13:34:32.830Z,94463.94
2024-03-05T13:37:00.082Z,94455.78
2024-03-05T13:39:26.905Z,94454.06
2024-03-05T13:41:54.563Z,94460.63
2024-03-05T13:44:23.477Z,94457.31
2024-03-05T13:46:51.555Z,94459.19
2024-03-05T13:49:20.341Z,94463.75
2024-03-05T13:51:47.029Z,94457.97
2024-03-05T13:54:14.001Z,94453.00
2024-03-05T13:56:42.209Z,94460.59
2024-03-05T13:59:11.629Z,94450.72
2024-03-05T14:01:43.036Z,94444.84
2024-03-05T14:04:12.607Z,94454.56
2024-03-05T14:06:39.775Z,94455.16
2024-03-05T14:09:10.288Z,94451.41
2024-03-05T14:11:37.912Z,94454.00
2024-03-05T14:14:05.149Z,94452.41
2024-03-05T14:16:32.526Z,94456.50
2024-03-05T14:19:00.043Z,94455.00
2024-03-05T14:21:30.802Z,94461.28
2024-03-05T14:23:58.655Z,94462.81
2024-03-05T14:26:25.612Z,94462.03
2024-03-05T14:28:52.530Z,94463.22
2024-03-05T14:31:19.554Z,94461.91
2024-03-05T14:33:46.671Z,94462.94
2024-03-05T14:36:15.212Z,94459.88
2024-03-05T14:38:43.907Z,94466.50
2024-03-05T14:41:11.357Z,94465.44
2024-03-05T14:43:38.382Z,94470.38
2024-03-05T14:46:06.706Z,94471.63
2024-03-05T14:48:34.310Z,94469.94
2024-03-05T14:51:01.667Z,94468.63
2024-03-05T14:53:28.512Z,94474.34
2024-03-05T14:55:55.448Z,94474.50
2024-03-05T14:58:22.412Z,94476.88
2024-03-05T15:00:49.104Z,94476.63
2024-03-05T15:03:19.356Z,94470.13
2024-03-05T15:05:46.810Z,94475.38
2024-03-05T15:08:14.082Z,94477.69
2024-03-05T15:10:40.919Z,94476.50
2024-03-05T15:13:08.971Z,94470.72
2024-03-05T15:15:35.713Z,94472.78
2024-03-05T15:18:02.430Z,94474.16
2024-03-05T15:20:29.128Z,94469.16
2024-03-05T15:22:56.056Z,94478.00
2024-03-05T15:25:23.764Z,94476.97
2024-03-05T15:28:01.052Z,94461.91
2024-03-05T15:30:33.188Z,94478.81
2024-03-05T15:33:01.387Z,94477.22
2024-03-05T15:35:30.022Z,94476.88
2024-03-05T15:37:57.615Z,94472.00
2024-03-05T15:40:24.667Z,94470.19
2024-03-05T15:42:53.072Z,94478.34
2024-03-05T15:45:26.352Z,94475.09
2024-03-05T15:47:55.813Z,94480.94
2024-03-05T15:50:24.181Z,94483.34
2024-03-05T15:52:54.994Z,94486.13
2024-03-05T15:55:26.049Z,94490.22
2024-03-05T15:58:13.607Z,94483.50
2024-03-05T16:00:40.246Z,94493.09
2024-03-05T16:03:11.268Z,94492.06
2024-03-05T16:05:47.263Z,94493.66
2024-03-05T16:08:25.295Z,94497.03
2024-03-05T16:10:53.248Z,94506.22
2024-03-05T16:13:20.315Z,94501.81
2024-03-05T16:15:48.242Z,94505.03
2024-03-05T16:18:15.432Z,94507.38
2024-03-05T16:20:42.411Z,94509.78
2024-03-05T16:23:10.602Z,94521.28
2024-03-05T16:25:40.512Z,94515.84
2024-03-05T16:28:08.219Z,94517.28
2024-03-05T16:30:35.613Z,94524.03
2024-03-05T16:33:02.222Z,94521.63
2024-03-05T16:35:33.822Z,94515.84
2024-03-05T16:38:01.532Z,94519.03
2024-03-05T16:40:28.387Z,94536.69
2024-03-05T16:42:56.361Z,94534.00
2024-03-05T16:45:24.392Z,94540.97
2024-03-05T16:47:56.282Z,94540.66
2024-03-05T16:50:27.004Z,94547.50
2024-03-05T16:52:55.631Z,94555.81
2024-03-05T16:55:25.263Z,94545.13
2024-03-05T16:57:54.148Z,94548.16
2024-03-05T17:00:24.442Z,94548.81
2024-03-05T17:02:57.918Z,94541.44
2024-03-05T17:05:25.260Z,94544.13
2024-03-05T17:07:55.608Z,94551.97
2024-03-05T17:10:28.131Z,94550.19
2024-03-05T17:12:56.909Z,94552.53
2024-03-05T17:15:45.276Z,94546.41
2024-03-05T17:18:12.745Z,94553.03
2024-03-05T17:20:39.605Z,94544.63
2024-03-05T17:23:07.193Z,94547.91
2024-03-05T17:25:38.691Z,94548.19
2024-03-05T17:28:09.374Z,94545.88
2024-03-05T17:30:36.089Z,94544.38
2024-03-05T17:33:02.789Z,94545.53
2024-03-05T17:35:29.591Z,94545.09
2024-03-05T17:37:56.826Z,94541.84
2024-03-05T17:40:23.475Z,94544.72
2024-03-05T17:42:50.367Z,94551.81
2024-03-05T17:45:17.625Z,94550.88
2024-03-05T17:47:44.438Z,94549.03
2024-03-05T17:50:17.420Z,94554.38
2024-03-05T17:52:45.388Z,94557.44
2024-03-05T17:55:19.279Z,94553.69
2024-03-05T17:57:48.387Z,94557.38
2024-03-05T18:00:27.472Z,94558.31
2024-03-05T18:02:56.229Z,94560.81
2024-03-05T18:05:25.279Z,94570.63
2024-03-05T18:07:52.803Z,94564.81
2024-03-05T18:10:20.918Z,94557.09
2024-03-05T18:12:49.898Z,94554.78
2024-03-05T18:15:20.631Z,94565.59
2024-03-05T18:17:50.073Z,94560.09
2024-03-05T18:20:20.392Z,94570.06
2024-03-05T18:22:47.454Z,94583.09
2024-03-05T18:25:21.552Z,94571.75
2024-03-05T18:27:57.821Z,94580.16
2024-03-05T18:30:36.965Z,94580.50
2024-03-05T18:33:08.516Z,94584.34
2024-03-05T18:35:36.620Z,94591.09
2024-03-05T18:38:16.473Z,94591.91
2024-03-05T18:40:51.423Z,94597.72
2024-03-05T18:43:20.852Z,94590.81
2024-03-05T18:45:47.808Z,94600.78
2024-03-05T18:48:14.603Z,94595.59
2024-03-05T18:50:41.459Z,94593.28
2024-03-05T18:53:09.379Z,94587.97
2024-03-05T18:55:37.614Z,94589.81
2024-03-05T18:58:07.788Z,94587.91
2024-03-05T19:00:35.104Z,94595.44
2024-03-05T19:03:02.267Z,94590.84
2024-03-05T19:05:29.112Z,94598.75
2024-03-05T19:07:55.846Z,94587.94
2024-03-05T19:10:22.466Z,94592.25
2024-03-05T19:12:49.496Z,94587.28
2024-03-05T19:15:18.656Z,94588.41
2024-03-05T19:17:48.883Z,94585.59
2024-03-05T19:20:16.327Z,94576.06
2024-03-05T19:22:43.350Z,94580.13
2024-03-05T19:25:12.818Z,94574.94
2024-03-05T19:27:43.326Z,94577.09
2024-03-05T19:30:18.157Z,94570.59
2024-03-05T19:32:45.883Z,94580.25
2024-03-05T19:35:15.194Z,94578.28
2024-03-05T19:37:43.009Z,94585.94
2024-03-05T19:40:18.029Z,94585.41
2024-03-05T19:42:46.022Z,94580.44
2024-03-05T19:45:13.437Z,94575.03
2024-03-05T19:47:40.447Z,94575.09
2024-03-05T19:50:07.683Z,94585.91
2024-03-05T19:52:34.930Z,94572.78
2024-03-05T19:55:02.078Z,94577.41
2024-03-05T19:57:29.304Z,94579.13
2024-03-05T19:59:58.803Z,94585.00
2024-03-05T20:02:27.151Z,94583.31
2024-03-05T20:04:54.024Z,94585.34
2024-03-05T20:07:22.490Z,94580.09
2024-03-05T20:09:49.862Z,94585.25
2024-03-05T20:12:17.147Z,94587.97
2024-03-05T20:14:44.148Z,94593.31
2024-03-05T20:17:11.588Z,94593.13
2024-03-05T20:19:40.762Z,94591.94
2024-03-05T20:22:09.044Z,94589.16
2024-03-05T20:24:36.498Z,94581.97
2024-03-05T20:27:04.102Z,94578.22
2024-03-05T20:29:32.178Z,94580.88
2024-03-05T20:31:59.697Z,94572.31
2024-03-05T20:34:28.092Z,94576.53
2024-03-05T20:36:55.934Z,94571.81
2024-03-05T20:39:23.568Z,94578.66
2024-03-05T20:41:50.991Z,94573.50
2024-03-05T20:44:18.690Z,94578.56
2024-03-05T20:46:46.077Z,94588.06
2024-03-05T20:49:16.300Z,94590.59
2024-03-05T20:51:43.994Z,94586.28
2024-03-05T20:54:11.257Z,94589.91
2024-03-05T20:56:38.058Z,94588.56
2024-03-05T20:59:04.918Z,94583.94
2024-03-05T21:01:31.905Z,94587.28
2024-03-05T21:04:00.218Z,94589.88
2024-03-05T21:06:27.019Z,94588.56
2024-03-05T21:08:53.924Z,94594.00
2024-03-05T21:11:21.313Z,94592.22
2024-03-05T21:13:48.347Z,94587.81
2024-03-05T21:16:15.444Z,94589.22
2024-03-05T21:18:42.355Z,94587.75
2024-03-05T21:21:15.135Z,94587.69
2024-03-05T21:23:43.042Z,94592.50
2024-03-05T21:26:23.132Z,94589.97
2024-03-05T21:28:57.181Z,94589.69
2024-03-05T21:31:25.390Z,94587.41
2024-03-05T21:33:52.138Z,94590.19
2024-03-05T21:36:18.822Z,94579.00
2024-03-05T21:38:45.669Z,94580.38
2024-03-05T21:41:13.685Z,94587.81
2024-03-05T21:43:41.202Z,94599.53
2024-03-05T21:46:09.008Z,94598.22
2024-03-05T21:48:35.627Z,94600.47
2024-03-05T21:51:06.816Z,94599.50
2024-03-05T21:53:39.073Z,94602.44
2024-03-05T21:56:06.177Z,94601.16
2024-03-05T21:58:32.924Z,94600.81
2024-03-05T22:00:59.580Z,94610.44
2024-03-05T22:03:26.266Z,94599.72
2024-03-05T22:05:53.620Z,94597.09
2024-03-05T22:08:21.321Z,94598.66
2024-03-05T22:10:47.996Z,94587.88
2024-03-05T22:13:14.611Z,94593.53
2024-03-05T22:15:41.309Z,94591.25
2024-03-05T22:18:08.447Z,94601.66
2024-03-05T22:20:35.174Z,94597.91
2024-03-05T22:23:03.136Z,94596.22
2024-03-05T22:25:29.871Z,94595.50
2024-03-05T22:27:56.672Z,94593.06
2024-03-05T22:30:23.288Z,94588.38
2024-03-05T22:32:50.209Z,94593.84
2024-03-05T22:35:17.024Z,94590.38
2024-03-05T22:37:43.811Z,94577.84
2024-03-05T22:40:13.497Z,94588.97
2024-03-05T22:42:40.310Z,94595.91
2024-03-05T22:45:08.783Z,94584.94
2024-03-05T22:47:35.593Z,94587.63
2024-03-05T22:50:02.458Z,94592.06
2024-03-05T22:52:29.407Z,94591.88
2024-03-05T22:54:56.090Z,94602.56
2024-03-05T22:57:25.421Z,94607.56
2024-03-05T22:59:52.083Z,94605.56
2024-03-05T23:02:19.653Z,94604.31
2024-03-05T23:04:47.510Z,94604.66
2024-03-05T23:07:17.153Z,94613.69
2024-03-05T23:09:43.844Z,94617.47
2024-03-05T23:12:15.899Z,94608.81
2024-03-05T23:14:43.344Z,94606.97
2024-03-05T23:17:13.630Z,94611.16
2024-03-05T23:19:42.480Z,94610.28
2024-03-05T23:22:09.290Z,94609.25
2024-03-05T23:24:35.969Z,94601.78
2024-03-05T23:27:02.724Z,94600.59
2024-03-05T23:29:29.437Z,94601.16
2024-03-05T23:31:56.194Z,94599.69
2024-03-05T23:34:22.821Z,94605.19
2024-03-05T23:36:49.474Z,94605.28
2024-03-05T23:39:16.615Z,94604.09
2024-03-05T23:41:45.386Z,94607.25
2024-03-05T23:44:12.759Z,94607.50
2024-03-05T23:46:39.676Z,94607.66
2024-03-05T23:49:06.375Z,94602.88
2024-03-05T23:51:33.055Z,94600.88
2024-03-05T23:53:59.714Z,94604.63
2024-03-05T23:56:26.341Z,94599.44
2024-03-05T23:58:53.229Z,94596.19
